Time;durP1;ratioP1;P1;durP2;ratioP2;P2;SDS_P1;SDS_P2;PMS_P1;PMS_P2;Temp;Humidity;BMP_temperature;BMP_pressure;BME280_temperature;BME280_humidity;BME280_pressure;Samples;Min_cycle;Max_cycle;Signal;HPM_P1;HPM_P2
2022/03/07 00:02:02;;;;;;;;;;;;;;;;;;5072107;28;1981;-67
2022/03/07 00:04:28;;;;;;;;;;;;;;;;;;5072457;28;889;-67
2022/03/07 00:06:55;;;;;;;;;;;;;;;;;;5072316;28;1086;-67
2022/03/07 00:09:21;;;;;;;;;;;;;;;;;;5070836;28;1351;-67
2022/03/07 00:11:47;;;;;;;;;;;;;;;;;;5071842;28;766;-67
2022/03/07 00:14:13;;;;;;;;;;;;;;;;;;5071848;28;1141;-68
2022/03/07 00:16:41;;;;;;;;;;;;;;;;;;5072012;28;1154;-68
2022/03/07 00:19:07;;;;;;;;;;;;;;;;;;5071807;28;1312;-68
2022/03/07 00:21:34;;;;;;;;;;;;;;;;;;5071544;28;1969;-67
2022/03/07 00:24:00;;;;;;;;;;;;;;;;;;5071840;28;750;-68
2022/03/07 00:26:26;;;;;;;;;;;;;;;;;;5071844;28;1134;-66
2022/03/07 00:28:52;;;;;;;;;;;;;;;;;;5071518;28;1372;-68
2022/03/07 00:31:19;;;;;;;;;;;;;;;;;;5071139;28;1078;-68
2022/03/07 00:33:46;;;;;;;;;;;;;;;;;;5070471;28;1126;-68
2022/03/07 00:36:12;;;;;;;;;;;;;;;;;;5071315;28;1468;-67
2022/03/07 00:38:39;;;;;;;;;;;;;;;;;;5053446;28;1456;-68
2022/03/07 00:41:08;;;;;;;;;;;;;;;;;;5053086;28;1969;-67
2022/03/07 00:43:34;;;;;;;;;;;;;;;;;;5071637;28;1135;-67
2022/03/07 00:46:02;;;;;;;;;;;;;;;;;;5053539;28;1242;-68
2022/03/07 00:48:28;;;;;;;;;;;;;;;;;;5053449;28;1325;-67
2022/03/07 00:50:56;;;;;;;;;;;;;;;;;;5052786;28;1594;-67
2022/03/07 00:53:23;;;;;;;;;;;;;;;;;;5053385;28;880;-67
2022/03/07 00:55:49;;;;;;;;;;;;;;;;;;5071333;28;809;-67
2022/03/07 00:58:15;;;;;;;;;;;;;;;;;;5053249;28;1722;-67
2022/03/07 01:00:42;;;;;;;;;;;;;;;;;;5053061;28;1914;-67
2022/03/07 01:03:09;;;;;;;;;;;;;;;;;;5053246;28;1202;-67
2022/03/07 01:05:35;;;;;;;;;;;;;;;;;;5052467;28;1167;-67
2022/03/07 01:08:03;;;;;;;;;;;;;;;;;;5070554;28;1332;-67
2022/03/07 01:10:29;;;;;;;;;;;;;;;;;;5052909;28;1132;-67
2022/03/07 01:12:56;;;;;;;;;;;;;;;;;;5071180;28;849;-67
2022/03/07 01:15:22;;;;;;;;;;;;;;;;;;5052783;28;1016;-67
2022/03/07 01:17:48;;;;;;;;;;;;;;;;;;5070774;28;1262;-67
2022/03/07 01:20:14;;;;;;;;;;;;;;;;;;5052275;28;1531;-67
2022/03/07 01:22:42;;;;;;;;;;;;;;;;;;5052748;28;1977;-67
2022/03/07 01:25:10;;;;;;;;;;;;;;;;;;5070424;28;882;-67
2022/03/07 01:27:36;;;;;;;;;;;;;;;;;;5044110;28;1888;-67
2022/03/07 01:30:03;;;;;;;;;;;;;;;;;;5052306;28;1235;-67
2022/03/07 01:32:29;;;;;;;;;;;;;;;;;;5052748;28;1278;-68
2022/03/07 01:34:55;;;;;;;;;;;;;;;;;;5070527;28;925;-67
2022/03/07 01:37:21;;;;;;;;;;;;;;;;;;5052716;28;1479;-67
2022/03/07 01:39:49;;;;;;;;;;;;;;;;;;5070190;28;948;-67
2022/03/07 01:42:16;;;;;;;;;;;;;;;;;;5051979;28;1989;-66
2022/03/07 01:44:43;;;;;;;;;;;;;;;;;;5052291;28;1195;-66
2022/03/07 01:47:10;;;;;;;;;;;;;;;;;;5052408;28;1224;-67
2022/03/07 01:49:36;;;;;;;;;;;;;;;;;;5070375;28;1399;-66
2022/03/07 01:52:02;;;;;;;;;;;;;;;;;;5052207;28;1023;-68
2022/03/07 01:54:30;;;;;;;;;;;;;;;;;;5052325;28;1287;-67
2022/03/07 01:56:57;;;;;;;;;;;;;;;;;;5070431;28;739;-68
2022/03/07 01:59:26;;;;;;;;;;;;;;;;;;5051921;28;1388;-68
2022/03/07 02:01:52;;;;;;;;;;;;;;;;;;5051751;28;1914;-67
2022/03/07 02:04:19;;;;;;;;;;;;;;;;;;5052251;28;1324;-68
2022/03/07 02:06:46;;;;;;;;;;;;;;;;;;5052496;28;1317;-67
2022/03/07 02:09:13;;;;;;;;;;;;;;;;;;5052033;28;2016;-67
2022/03/07 02:11:43;;;;;;;;;;;;;;;;;;5052013;28;1447;-68
2022/03/07 02:14:12;;;;;;;;;;;;;;;;;;5051887;28;1335;-68
2022/03/07 02:16:40;;;;;;;;;;;;;;;;;;5051980;28;1432;-67
2022/03/07 02:19:06;;;;;;;;;;;;;;;;;;5054839;28;1331;-67
2022/03/07 02:21:33;;;;;;;;;;;;;;;;;;5056042;28;1985;-66
2022/03/07 02:24:16;;;;;;;;;;;;;;;;;;5055849;28;1332;-67
2022/03/07 02:26:55;;;;;;;;;;;;;;;;;;5056245;28;1407;-67
2022/03/07 02:29:22;;;;;;;;;;;;;;;;;;5055887;28;1439;-66
2022/03/07 02:31:49;;;;;;;;;;;;;;;;;;5055617;28;1153;-67
2022/03/07 02:34:18;;;;;;;;;;;;;;;;;;5055962;28;1424;-67
2022/03/07 02:36:45;;;;;;;;;;;;;;;;;;5055878;28;1341;-67
2022/03/07 02:39:12;;;;;;;;;;;;;;;;;;5055733;28;1312;-67
2022/03/07 02:41:40;;;;;;;;;;;;;;;;;;5055466;28;1976;-67
2022/03/07 02:44:06;;;;;;;;;;;;;;;;;;5073346;28;1492;-67
2022/03/07 02:46:33;;;;;;;;;;;;;;;;;;5073920;28;1039;-67
2022/03/07 02:48:59;;;;;;;;;;;;;;;;;;5055509;28;1391;-67
2022/03/07 02:51:25;;;;;;;;;;;;;;;;;;5055506;28;1381;-66
2022/03/07 02:53:52;;;;;;;;;;;;;;;;;;5055355;28;1159;-68
2022/03/07 02:56:18;;;;;;;;;;;;;;;;;;5073529;28;1016;-68
2022/03/07 02:58:46;;;;;;;;;;;;;;;;;;5089266;22;3512;-68
2022/03/07 03:01:12;;;;;;;;;;;;;;;;;;5053471;28;1887;-67
2022/03/07 03:03:38;;;;;;;;;;;;;;;;;;5036423;28;1160;-68
2022/03/07 03:06:05;;;;;;;;;;;;;;;;;;5036472;28;774;-67
2022/03/07 03:08:31;;;;;;;;;;;;;;;;;;5054914;28;1389;-68
2022/03/07 03:10:58;;;;;;;;;;;;;;;;;;5055391;28;1113;-67
2022/03/07 03:13:24;;;;;;;;;;;;;;;;;;5074097;28;798;-68
2022/03/07 03:15:52;;;;;;;;;;;;;;;;;;5073926;28;878;-68
2022/03/07 03:18:18;;;;;;;;;;;;;;;;;;5073812;28;1087;-68
2022/03/07 03:20:44;;;;;;;;;;;;;;;;;;5073397;28;1290;-68
2022/03/07 03:23:10;;;;;;;;;;;;;;;;;;5074531;28;1969;-67
2022/03/07 03:25:37;;;;;;;;;;;;;;;;;;5055966;28;1130;-67
2022/03/07 03:28:03;;;;;;;;;;;;;;;;;;5073531;28;1138;-68
2022/03/07 03:30:29;;;;;;;;;;;;;;;;;;5072573;28;1332;-68
2022/03/07 03:32:57;;;;;;;;;;;;;;;;;;5073646;28;968;-68
2022/03/07 03:35:23;;;;;;;;;;;;;;;;;;5073710;28;742;-68
2022/03/07 03:37:49;;;;;;;;;;;;;;;;;;5073427;28;775;-68
2022/03/07 03:40:16;;;;;;;;;;;;;;;;;;5073233;28;1327;-67
2022/03/07 03:42:42;;;;;;;;;;;;;;;;;;5073432;28;1898;-68
2022/03/07 03:45:09;;;;;;;;;;;;;;;;;;5073435;28;1126;-67
2022/03/07 03:47:35;;;;;;;;;;;;;;;;;;5073320;28;1091;-68
2022/03/07 03:50:03;;;;;;;;;;;;;;;;;;5072612;28;1334;-69
2022/03/07 03:52:29;;;;;;;;;;;;;;;;;;5072993;28;1083;-67
2022/03/07 03:54:56;;;;;;;;;;;;;;;;;;5073053;28;805;-67
2022/03/07 03:57:22;;;;;;;;;;;;;;;;;;5073098;28;1126;-68
2022/03/07 03:59:48;;;;;;;;;;;;;;;;;;5054582;28;1400;-68
2022/03/07 04:02:15;;;;;;;;;;;;;;;;;;5072933;28;1914;-67
2022/03/07 04:04:41;;;;;;;;;;;;;;;;;;5064033;28;2042;-68
2022/03/07 04:07:08;;;;;;;;;;;;;;;;;;5072390;28;1062;-68
2022/03/07 04:09:35;;;;;;;;;;;;;;;;;;5072703;28;1293;-68
2022/03/07 04:12:01;;;;;;;;;;;;;;;;;;5072774;28;770;-68
2022/03/07 04:14:27;;;;;;;;;;;;;;;;;;5072732;28;1083;-69
2022/03/07 04:16:54;;;;;;;;;;;;;;;;;;5072653;28;1153;-66
2022/03/07 04:19:20;;;;;;;;;;;;;;;;;;5072577;28;1288;-68
2022/03/07 04:21:46;;;;;;;;;;;;;;;;;;5053858;28;2017;-68
2022/03/07 04:24:14;;;;;;;;;;;;;;;;;;5054517;28;1143;-68
2022/03/07 04:26:40;;;;;;;;;;;;;;;;;;5054655;28;1167;-68
2022/03/07 04:29:08;;;;;;;;;;;;;;;;;;5072304;28;1353;-68
2022/03/07 04:31:34;;;;;;;;;;;;;;;;;;5071984;28;1083;-68
2022/03/07 04:34:00;;;;;;;;;;;;;;;;;;5072259;28;1007;-68
2022/03/07 04:36:27;;;;;;;;;;;;;;;;;;5072397;28;870;-68
2022/03/07 04:38:53;;;;;;;;;;;;;;;;;;5072088;28;1311;-66
2022/03/07 04:41:20;;;;;;;;;;;;;;;;;;5070715;28;1138;-68
2022/03/07 04:43:47;;;;;;;;;;;;;;;;;;5072045;28;1922;-67
2022/03/07 04:46:13;;;;;;;;;;;;;;;;;;5074420;28;1475;-67
2022/03/07 04:48:39;;;;;;;;;;;;;;;;;;5071739;28;1300;-66
2022/03/07 04:51:05;;;;;;;;;;;;;;;;;;5071790;28;814;-67
2022/03/07 04:53:31;;;;;;;;;;;;;;;;;;5071800;28;829;-66
2022/03/07 04:55:58;;;;;;;;;;;;;;;;;;5071567;28;1098;-67
2022/03/07 04:58:25;;;;;;;;;;;;;;;;;;5071902;28;1079;-68
2022/03/07 05:00:53;;;;;;;;;;;;;;;;;;5071005;28;862;-68
2022/03/07 05:03:19;;;;;;;;;;;;;;;;;;5071600;28;1969;-68
2022/03/07 05:05:46;;;;;;;;;;;;;;;;;;5071622;28;897;-67
2022/03/07 05:08:12;;;;;;;;;;;;;;;;;;5071655;28;1057;-68
2022/03/07 05:10:38;;;;;;;;;;;;;;;;;;5070992;28;1316;-67
2022/03/07 05:13:04;;;;;;;;;;;;;;;;;;5071430;28;1083;-68
2022/03/07 05:15:32;;;;;;;;;;;;;;;;;;5071304;28;959;-67
2022/03/07 05:17:58;;;;;;;;;;;;;;;;;;5071173;28;1020;-67
2022/03/07 05:20:25;;;;;;;;;;;;;;;;;;5070547;28;1289;-67
2022/03/07 05:22:51;;;;;;;;;;;;;;;;;;5071207;28;1914;-67
2022/03/07 05:25:18;;;;;;;;;;;;;;;;;;5071154;28;999;-67
2022/03/07 05:27:44;;;;;;;;;;;;;;;;;;5065844;28;1390;-67
2022/03/07 05:30:13;;;;;;;;;;;;;;;;;;5053374;28;1373;-67
2022/03/07 05:32:40;;;;;;;;;;;;;;;;;;5071516;28;1347;-68
2022/03/07 05:35:07;;;;;;;;;;;;;;;;;;5071020;28;1142;-67
2022/03/07 05:37:34;;;;;;;;;;;;;;;;;;5067257;28;1572;-68
2022/03/07 05:40:00;;;;;;;;;;;;;;;;;;5069756;28;1493;-68
2022/03/07 05:42:26;;;;;;;;;;;;;;;;;;5063855;28;1918;-68
2022/03/07 05:44:53;;;;;;;;;;;;;;;;;;5065018;28;1548;-68
2022/03/07 05:47:19;;;;;;;;;;;;;;;;;;5070685;28;1452;-68
2022/03/07 05:49:46;;;;;;;;;;;;;;;;;;5070125;28;1422;-67
2022/03/07 05:52:13;;;;;;;;;;;;;;;;;;5070898;28;988;-68
2022/03/07 05:54:39;;;;;;;;;;;;;;;;;;5064180;28;1489;-67
2022/03/07 05:57:05;;;;;;;;;;;;;;;;;;5051437;28;1608;-68
2022/03/07 05:59:31;;;;;;;;;;;;;;;;;;5059176;28;1411;-67
2022/03/07 06:01:58;;;;;;;;;;;;;;;;;;5069506;28;1444;-68
2022/03/07 06:04:24;;;;;;;;;;;;;;;;;;5063746;28;1437;-68
2022/03/07 06:06:52;;;;;;;;;;;;;;;;;;5064262;28;1324;-68
2022/03/07 06:09:18;;;;;;;;;;;;;;;;;;5053734;28;1693;-68
2022/03/07 06:11:44;;;;;;;;;;;;;;;;;;5069768;28;1402;-67
2022/03/07 06:14:11;;;;;;;;;;;;;;;;;;5069650;28;1160;-68
2022/03/07 06:16:37;;;;;;;;;;;;;;;;;;5068034;28;1328;-68
2022/03/07 06:19:03;;;;;;;;;;;;;;;;;;5069470;28;1409;-67
2022/03/07 06:21:29;;;;;;;;;;;;;;;;;;5069809;28;1200;-68
2022/03/07 06:23:57;;;;;;;;;;;;;;;;;;5069735;28;1976;-68
2022/03/07 06:26:23;;;;;;;;;;;;;;;;;;5069438;28;1464;-68
2022/03/07 06:28:50;;;;;;;;;;;;;;;;;;5043383;28;2293;-68
2022/03/07 06:31:16;;;;;;;;;;;;;;;;;;5051168;28;1469;-67
2022/03/07 06:33:42;;;;;;;;;;;;;;;;;;5054642;28;1497;-68
2022/03/07 06:36:08;;;;;;;;;;;;;;;;;;5069355;28;1572;-68
2022/03/07 06:38:34;;;;;;;;;;;;;;;;;;5053230;28;1538;-68
2022/03/07 06:41:02;;;;;;;;;;;;;;;;;;5040023;28;1458;-67
2022/03/07 06:43:28;;;;;;;;;;;;;;;;;;5051396;28;2005;-68
2022/03/07 06:45:54;;;;;;;;;;;;;;;;;;5034469;28;1559;-68
2022/03/07 06:48:21;;;;;;;;;;;;;;;;;;5065885;28;1529;-68
2022/03/07 06:50:47;;;;;;;;;;;;;;;;;;5069975;28;1356;-68
2022/03/07 06:53:13;;;;;;;;;;;;;;;;;;5050482;28;1589;-68
2022/03/07 06:55:39;;;;;;;;;;;;;;;;;;5070093;28;996;-68
2022/03/07 06:58:07;;;;;;;;;;;;;;;;;;5036147;28;1531;-67
2022/03/07 07:00:33;;;;;;;;;;;;;;;;;;5062510;28;1517;-67
2022/03/07 07:02:59;;;;;;;;;;;;;;;;;;5069747;28;1914;-68
2022/03/07 07:05:26;;;;;;;;;;;;;;;;;;5071016;28;1669;-68
2022/03/07 07:07:52;;;;;;;;;;;;;;;;;;5073617;28;864;-66
2022/03/07 07:10:19;;;;;;;;;;;;;;;;;;5071698;28;1477;-68
2022/03/07 07:12:45;;;;;;;;;;;;;;;;;;5073800;28;1090;-68
2022/03/07 07:15:13;;;;;;;;;;;;;;;;;;5044678;28;1532;-67
2022/03/07 07:17:39;;;;;;;;;;;;;;;;;;5055030;28;1657;-68
2022/03/07 07:20:06;;;;;;;;;;;;;;;;;;5053300;28;1381;-68
2022/03/07 07:22:32;;;;;;;;;;;;;;;;;;5055019;28;1918;-68
2022/03/07 07:24:59;;;;;;;;;;;;;;;;;;5070645;28;1592;-68
2022/03/07 07:27:25;;;;;;;;;;;;;;;;;;5072656;28;794;-68
2022/03/07 07:29:51;;;;;;;;;;;;;;;;;;5073130;28;1331;-69
2022/03/07 07:32:18;;;;;;;;;;;;;;;;;;5073388;28;870;-68
2022/03/07 07:34:45;;;;;;;;;;;;;;;;;;5073114;28;1070;-68
2022/03/07 07:37:11;;;;;;;;;;;;;;;;;;5073218;28;1075;-67
2022/03/07 07:39:37;;;;;;;;;;;;;;;;;;5074360;28;1384;-68
2022/03/07 07:42:04;;;;;;;;;;;;;;;;;;5073435;28;842;-68
2022/03/07 07:44:30;;;;;;;;;;;;;;;;;;5072680;28;1921;-68
2022/03/07 07:46:56;;;;;;;;;;;;;;;;;;5073033;28;956;-67
2022/03/07 07:49:24;;;;;;;;;;;;;;;;;;5072746;28;1304;-69
2022/03/07 07:51:51;;;;;;;;;;;;;;;;;;5072718;28;1074;-69
2022/03/07 07:54:17;;;;;;;;;;;;;;;;;;5055025;28;997;-69
2022/03/07 07:56:43;;;;;;;;;;;;;;;;;;5072841;28;1134;-69
2022/03/07 07:59:10;;;;;;;;;;;;;;;;;;5072866;28;1288;-68
2022/03/07 08:01:37;;;;;;;;;;;;;;;;;;5072335;28;1074;-68
2022/03/07 08:04:03;;;;;;;;;;;;;;;;;;5072740;28;1991;-67
2022/03/07 08:06:30;;;;;;;;;;;;;;;;;;5072771;28;1083;-68
2022/03/07 08:08:57;;;;;;;;;;;;;;;;;;5072409;28;1396;-68
2022/03/07 08:11:23;;;;;;;;;;;;;;;;;;5054552;28;931;-68
2022/03/07 08:13:49;;;;;;;;;;;;;;;;;;5072512;28;1102;-68
2022/03/07 08:16:17;;;;;;;;;;;;;;;;;;5072942;28;833;-68
2022/03/07 08:18:43;;;;;;;;;;;;;;;;;;5054965;28;1335;-69
2022/03/07 08:21:09;;;;;;;;;;;;;;;;;;5072845;28;925;-69
2022/03/07 08:23:37;;;;;;;;;;;;;;;;;;5073448;28;1918;-68
2022/03/07 08:26:03;;;;;;;;;;;;;;;;;;5072340;28;1024;-69
2022/03/07 08:28:29;;;;;;;;;;;;;;;;;;5072537;28;1320;-68
2022/03/07 08:30:56;;;;;;;;;;;;;;;;;;5071941;28;876;-68
2022/03/07 08:33:22;;;;;;;;;;;;;;;;;;5072105;28;1094;-68
2022/03/07 08:35:49;;;;;;;;;;;;;;;;;;5071981;28;1126;-68
2022/03/07 08:38:16;;;;;;;;;;;;;;;;;;5072151;28;889;-67
2022/03/07 08:40:43;;;;;;;;;;;;;;;;;;5071783;28;1306;-67
2022/03/07 08:43:09;;;;;;;;;;;;;;;;;;5056728;28;2253;-68
2022/03/07 08:45:36;;;;;;;;;;;;;;;;;;5072094;28;1151;-68
2022/03/07 08:48:02;;;;;;;;;;;;;;;;;;5071811;28;1129;-68
2022/03/07 08:50:28;;;;;;;;;;;;;;;;;;5071705;28;1310;-68
2022/03/07 08:52:54;;;;;;;;;;;;;;;;;;5071849;28;910;-68
2022/03/07 08:55:20;;;;;;;;;;;;;;;;;;5071625;28;1083;-68
2022/03/07 08:57:48;;;;;;;;;;;;;;;;;;5071307;28;1142;-68
2022/03/07 09:00:15;;;;;;;;;;;;;;;;;;5110811;22;3540;-70
2022/03/07 09:02:41;;;;;;;;;;;;;;;;;;5111365;28;955;-69
2022/03/07 09:05:08;;;;;;;;;;;;;;;;;;5111408;28;1914;-70
2022/03/07 09:07:34;;;;;;;;;;;;;;;;;;5111200;28;1070;-71
2022/03/07 09:10:00;;;;;;;;;;;;;;;;;;5110635;28;1383;-70
2022/03/07 09:12:28;;;;;;;;;;;;;;;;;;5111418;28;927;-70
2022/03/07 09:14:56;;;;;;;;;;;;;;;;;;5111009;28;912;-70
2022/03/07 09:17:22;;;;;;;;;;;;;;;;;;5111542;28;844;-70
2022/03/07 09:19:48;;;;;;;;;;;;;;;;;;5111122;28;1367;-70
2022/03/07 09:22:15;;;;;;;;;;;;;;;;;;5111372;28;1101;-70
2022/03/07 09:24:41;;;;;;;;;;;;;;;;;;5111162;28;1975;-70
2022/03/07 09:27:07;;;;;;;;;;;;;;;;;;5110968;28;807;-70
2022/03/07 09:29:33;;;;;;;;;;;;;;;;;;5092710;28;1402;-70
2022/03/07 09:32:01;;;;;;;;;;;;;;;;;;5110796;28;714;-70
2022/03/07 09:34:27;;;;;;;;;;;;;;;;;;5111342;28;1079;-70
2022/03/07 09:36:53;;;;;;;;;;;;;;;;;;5111082;28;928;-70
2022/03/07 09:39:19;;;;;;;;;;;;;;;;;;5111060;28;1406;-69
2022/03/07 09:41:46;;;;;;;;;;;;;;;;;;5110730;28;996;-70
2022/03/07 09:44:12;;;;;;;;;;;;;;;;;;5111079;28;1909;-70
2022/03/07 09:46:38;;;;;;;;;;;;;;;;;;5111073;28;955;-70
2022/03/07 09:49:06;;;;;;;;;;;;;;;;;;5110650;28;1305;-71
2022/03/07 09:51:32;;;;;;;;;;;;;;;;;;5110304;28;1070;-70
2022/03/07 09:53:58;;;;;;;;;;;;;;;;;;5110764;28;832;-71
2022/03/07 09:56:24;;;;;;;;;;;;;;;;;;5109764;28;1375;-70
2022/03/07 09:58:51;;;;;;;;;;;;;;;;;;5101896;28;1492;-70
2022/03/07 10:01:19;;;;;;;;;;;;;;;;;;5099747;28;1587;-70
2022/03/07 10:03:45;;;;;;;;;;;;;;;;;;5090457;28;1972;-70
2022/03/07 10:06:14;;;;;;;;;;;;;;;;;;5090189;28;1087;-71
2022/03/07 10:08:40;;;;;;;;;;;;;;;;;;5108230;28;1524;-70
2022/03/07 10:11:08;;;;;;;;;;;;;;;;;;5108849;28;1495;-71
2022/03/07 10:13:34;;;;;;;;;;;;;;;;;;5110579;28;1126;-69
2022/03/07 10:16:02;;;;;;;;;;;;;;;;;;5109013;28;1452;-71
2022/03/07 10:18:28;;;;;;;;;;;;;;;;;;5110565;28;1129;-71
2022/03/07 10:20:56;;;;;;;;;;;;;;;;;;5101545;28;1488;-71
2022/03/07 10:23:25;;;;;;;;;;;;;;;;;;5091765;28;1969;-70
2022/03/07 10:25:51;;;;;;;;;;;;;;;;;;5098833;28;2181;-70
2022/03/07 10:28:18;;;;;;;;;;;;;;;;;;5086961;28;1160;-70
2022/03/07 10:30:44;;;;;;;;;;;;;;;;;;5101835;28;1424;-70
2022/03/07 10:33:11;;;;;;;;;;;;;;;;;;5110012;28;938;-71
2022/03/07 10:35:37;;;;;;;;;;;;;;;;;;5110964;28;774;-71
2022/03/07 10:38:04;;;;;;;;;;;;;;;;;;5110879;28;793;-70
2022/03/07 10:40:32;;;;;;;;;;;;;;;;;;5114094;28;1333;-70
2022/03/07 10:43:00;;;;;;;;;;;;;;;;;;5103046;28;1444;-70
2022/03/07 10:45:27;;;;;;;;;;;;;;;;;;5099643;28;1985;-70
2022/03/07 10:47:54;;;;;;;;;;;;;;;;;;5109821;28;1166;-71
2022/03/07 10:50:20;;;;;;;;;;;;;;;;;;5102275;28;1499;-71
2022/03/07 10:52:47;;;;;;;;;;;;;;;;;;5093649;28;1086;-70
2022/03/07 10:55:13;;;;;;;;;;;;;;;;;;5110475;28;1566;-70
2022/03/07 10:57:41;;;;;;;;;;;;;;;;;;5102709;28;1544;-70
2022/03/07 11:00:09;;;;;;;;;;;;;;;;;;5093060;28;1266;-70
2022/03/07 11:02:38;;;;;;;;;;;;;;;;;;5093548;28;1258;-71
2022/03/07 11:05:07;;;;;;;;;;;;;;;;;;5075386;28;1918;-72
2022/03/07 11:07:33;;;;;;;;;;;;;;;;;;5096659;28;1500;-72
2022/03/07 11:09:59;;;;;;;;;;;;;;;;;;5107840;28;1496;-71
2022/03/07 11:12:27;;;;;;;;;;;;;;;;;;5102126;28;1515;-71
2022/03/07 11:14:55;;;;;;;;;;;;;;;;;;5102588;28;1516;-71
2022/03/07 11:17:21;;;;;;;;;;;;;;;;;;5102201;28;1529;-71
2022/03/07 11:19:47;;;;;;;;;;;;;;;;;;5092985;28;1301;-70
2022/03/07 11:22:13;;;;;;;;;;;;;;;;;;5106582;28;1519;-70
2022/03/07 11:24:39;;;;;;;;;;;;;;;;;;5106280;28;1914;-70
2022/03/07 11:27:06;;;;;;;;;;;;;;;;;;5092742;28;1381;-71
2022/03/07 11:29:32;;;;;;;;;;;;;;;;;;5092814;28;1313;-70
2022/03/07 11:32:01;;;;;;;;;;;;;;;;;;5093280;28;798;-71
2022/03/07 11:34:27;;;;;;;;;;;;;;;;;;5075051;28;1056;-71
2022/03/07 11:36:54;;;;;;;;;;;;;;;;;;5093079;28;1378;-71
2022/03/07 11:39:29;;;;;;;;;;;;;;;;;;5093082;28;1523;-71
2022/03/07 11:41:55;;;;;;;;;;;;;;;;;;5094968;28;1440;-71
2022/03/07 11:44:22;;;;;;;;;;;;;;;;;;5093126;28;1961;-71
2022/03/07 11:46:51;;;;;;;;;;;;;;;;;;5093293;28;965;-71
2022/03/07 11:49:26;;;;;;;;;;;;;;;;;;5092809;28;1422;-69
2022/03/07 11:51:56;;;;;;;;;;;;;;;;;;5092533;28;1067;-71
2022/03/07 11:54:22;;;;;;;;;;;;;;;;;;5092989;28;1090;-71
2022/03/07 11:56:49;;;;;;;;;;;;;;;;;;5092940;28;856;-71
2022/03/07 11:59:15;;;;;;;;;;;;;;;;;;5092517;28;1269;-71
2022/03/07 12:01:51;;;;;;;;;;;;;;;;;;5096092;28;1467;-70
2022/03/07 12:04:18;;;;;;;;;;;;;;;;;;5105656;28;1977;-71
2022/03/07 12:06:46;;;;;;;;;;;;;;;;;;5110795;28;1523;-70
2022/03/07 12:09:23;;;;;;;;;;;;;;;;;;5112831;28;1297;-70
2022/03/07 12:11:57;;;;;;;;;;;;;;;;;;5112531;28;900;-70
2022/03/07 12:14:25;;;;;;;;;;;;;;;;;;5094514;28;992;-70
2022/03/07 12:16:52;;;;;;;;;;;;;;;;;;5112543;28;1158;-72
2022/03/07 12:19:19;;;;;;;;;;;;;;;;;;5111926;28;1393;-71
2022/03/07 12:21:47;;;;;;;;;;;;;;;;;;5112232;28;936;-71
2022/03/07 12:24:15;;;;;;;;;;;;;;;;;;5104601;28;1981;-71
2022/03/07 12:26:45;;;;;;;;;;;;;;;;;;5105565;28;1190;-71
2022/03/07 12:29:11;;;;;;;;;;;;;;;;;;5099098;28;1483;-71
2022/03/07 12:31:37;;;;;;;;;;;;;;;;;;5112291;28;800;-70
2022/03/07 12:34:04;;;;;;;;;;;;;;;;;;5103973;28;1330;-71
2022/03/07 12:36:30;;;;;;;;;;;;;;;;;;5074003;28;1151;-71
2022/03/07 12:38:58;;;;;;;;;;;;;;;;;;5091781;28;1350;-71
2022/03/07 12:41:28;;;;;;;;;;;;;;;;;;5092068;28;1480;-71
2022/03/07 12:43:54;;;;;;;;;;;;;;;;;;5093027;28;1483;-71
2022/03/07 12:46:20;;;;;;;;;;;;;;;;;;5109678;28;1918;-71
2022/03/07 12:48:47;;;;;;;;;;;;;;;;;;5096658;28;1547;-71
2022/03/07 12:51:14;;;;;;;;;;;;;;;;;;5092746;28;1546;-71
2022/03/07 12:53:47;;;;;;;;;;;;;;;;;;5112222;28;1074;-70
2022/03/07 12:56:15;;;;;;;;;;;;;;;;;;5110527;28;1673;-71
2022/03/07 12:58:45;;;;;;;;;;;;;;;;;;5091731;28;1274;-71
2022/03/07 13:01:11;;;;;;;;;;;;;;;;;;5090526;28;1480;-71
2022/03/07 13:03:37;;;;;;;;;;;;;;;;;;5111497;28;1078;-71
2022/03/07 13:06:04;;;;;;;;;;;;;;;;;;5111591;28;1905;-71
2022/03/07 13:08:30;;;;;;;;;;;;;;;;;;5106397;28;1512;-71
2022/03/07 13:10:56;;;;;;;;;;;;;;;;;;5111273;28;1292;-70
2022/03/07 13:13:24;;;;;;;;;;;;;;;;;;5092904;28;1516;-71
2022/03/07 13:15:50;;;;;;;;;;;;;;;;;;5091134;28;1038;-72
2022/03/07 13:18:16;;;;;;;;;;;;;;;;;;5107656;28;1520;-71
2022/03/07 13:20:42;;;;;;;;;;;;;;;;;;5092951;28;1351;-71
2022/03/07 13:23:09;;;;;;;;;;;;;;;;;;5096026;28;1481;-70
2022/03/07 13:25:36;;;;;;;;;;;;;;;;;;5097638;28;1918;-71
2022/03/07 13:28:02;;;;;;;;;;;;;;;;;;5100557;28;1385;-70
2022/03/07 13:30:29;;;;;;;;;;;;;;;;;;5106505;28;1391;-71
2022/03/07 13:33:02;;;;;;;;;;;;;;;;;;5103243;28;1467;-70
2022/03/07 13:35:28;;;;;;;;;;;;;;;;;;5111301;28;1023;-70
2022/03/07 13:37:55;;;;;;;;;;;;;;;;;;5106044;28;1389;-70
2022/03/07 13:40:24;;;;;;;;;;;;;;;;;;5104568;28;1504;-72
2022/03/07 13:42:51;;;;;;;;;;;;;;;;;;5090715;28;1571;-72
2022/03/07 13:45:18;;;;;;;;;;;;;;;;;;5092147;28;1913;-71
2022/03/07 13:47:45;;;;;;;;;;;;;;;;;;5094736;28;1516;-72
2022/03/07 13:50:15;;;;;;;;;;;;;;;;;;5090644;28;1596;-71
2022/03/07 13:52:41;;;;;;;;;;;;;;;;;;5103421;28;1476;-72
2022/03/07 13:55:09;;;;;;;;;;;;;;;;;;5106864;28;1514;-72
2022/03/07 13:57:35;;;;;;;;;;;;;;;;;;5101735;28;1472;-72
2022/03/07 14:00:04;;;;;;;;;;;;;;;;;;5083996;28;1479;-71
2022/03/07 14:02:38;;;;;;;;;;;;;;;;;;5100422;28;1320;-72
2022/03/07 14:05:06;;;;;;;;;;;;;;;;;;5097581;28;1967;-72
2022/03/07 14:07:32;;;;;;;;;;;;;;;;;;5099207;28;1451;-72
2022/03/07 14:09:59;;;;;;;;;;;;;;;;;;5097160;28;1511;-72
2022/03/07 14:12:29;;;;;;;;;;;;;;;;;;5088763;28;1998;-72
2022/03/07 14:14:56;;;;;;;;;;;;;;;;;;5106415;28;1527;-71
2022/03/07 14:17:23;;;;;;;;;;;;;;;;;;5106929;28;1452;-72
2022/03/07 14:19:49;;;;;;;;;;;;;;;;;;5106089;28;1425;-72
2022/03/07 14:22:19;;;;;;;;;;;;;;;;;;5108645;28;1544;-72
2022/03/07 14:24:45;;;;;;;;;;;;;;;;;;5102737;28;1910;-73
2022/03/07 14:27:11;;;;;;;;;;;;;;;;;;5105316;28;1311;-72
2022/03/07 14:29:38;;;;;;;;;;;;;;;;;;5109963;28;1504;-72
2022/03/07 14:32:05;;;;;;;;;;;;;;;;;;5107097;28;1487;-72
2022/03/07 14:34:31;;;;;;;;;;;;;;;;;;5090442;28;1496;-73
2022/03/07 14:36:57;;;;;;;;;;;;;;;;;;5094486;28;1550;-73
2022/03/07 14:39:25;;;;;;;;;;;;;;;;;;5091672;28;1486;-73
2022/03/07 14:41:52;;;;;;;;;;;;;;;;;;5102895;28;1507;-72
2022/03/07 14:44:18;;;;;;;;;;;;;;;;;;5091182;28;1508;-72
2022/03/07 14:46:44;;;;;;;;;;;;;;;;;;5098455;28;1947;-72
2022/03/07 14:49:11;;;;;;;;;;;;;;;;;;5093863;28;1577;-73
2022/03/07 14:51:37;;;;;;;;;;;;;;;;;;5093951;28;1309;-72
2022/03/07 14:54:03;;;;;;;;;;;;;;;;;;5089145;28;1374;-72
2022/03/07 14:56:31;;;;;;;;;;;;;;;;;;5108616;28;876;-72
2022/03/07 14:58:58;;;;;;;;;;;;;;;;;;5107717;28;1479;-72
2022/03/07 15:01:25;;;;;;;;;;;;;;;;;;5099245;28;1531;-71
2022/03/07 15:03:51;;;;;;;;;;;;;;;;;;5088957;28;1376;-72
2022/03/07 15:06:18;;;;;;;;;;;;;;;;;;5104590;28;1917;-72
2022/03/07 15:08:44;;;;;;;;;;;;;;;;;;5108199;28;1353;-72
2022/03/07 15:11:10;;;;;;;;;;;;;;;;;;5088732;28;1468;-72
2022/03/07 15:13:37;;;;;;;;;;;;;;;;;;5097605;22;4101;-68
2022/03/07 15:16:04;;;;;;;;;;;;;;;;;;5065529;28;1243;-68
2022/03/07 15:18:30;;;;;;;;;;;;;;;;;;5067733;28;1642;-68
2022/03/07 15:20:56;;;;;;;;;;;;;;;;;;5067147;28;1528;-68
2022/03/07 15:23:22;;;;;;;;;;;;;;;;;;5052999;28;1518;-68
2022/03/07 15:25:51;;;;;;;;;;;;;;;;;;5049405;28;1910;-69
2022/03/07 15:28:17;;;;;;;;;;;;;;;;;;5051298;28;1477;-69
2022/03/07 15:30:45;;;;;;;;;;;;;;;;;;5050702;28;1465;-69
2022/03/07 15:33:11;;;;;;;;;;;;;;;;;;5050349;28;1469;-69
2022/03/07 15:35:38;;;;;;;;;;;;;;;;;;5032812;28;1547;-69
2022/03/07 15:38:04;;;;;;;;;;;;;;;;;;5051292;28;1346;-69
2022/03/07 15:40:30;;;;;;;;;;;;;;;;;;5050796;28;1504;-68
2022/03/07 15:42:56;;;;;;;;;;;;;;;;;;5051526;28;1442;-69
2022/03/07 15:45:22;;;;;;;;;;;;;;;;;;5049366;28;2386;-69
2022/03/07 15:47:50;;;;;;;;;;;;;;;;;;5050789;28;1466;-68
2022/03/07 15:50:16;;;;;;;;;;;;;;;;;;5050249;28;1453;-68
2022/03/07 15:52:42;;;;;;;;;;;;;;;;;;5050725;28;1509;-69
2022/03/07 15:55:10;;;;;;;;;;;;;;;;;;5050816;28;1445;-68
2022/03/07 15:57:36;;;;;;;;;;;;;;;;;;5048806;28;2260;-68
2022/03/07 16:00:04;;;;;;;;;;;;;;;;;;5050712;28;1225;-68
2022/03/07 16:02:31;;;;;;;;;;;;;;;;;;5051757;28;1545;-69
2022/03/07 16:04:58;;;;;;;;;;;;;;;;;;5052443;28;1432;-68
2022/03/07 16:07:25;;;;;;;;;;;;;;;;;;5047424;28;1287;-68
2022/03/07 16:09:52;;;;;;;;;;;;;;;;;;5050320;28;1383;-68
2022/03/07 16:12:19;;;;;;;;;;;;;;;;;;5049800;28;1550;-68
2022/03/07 16:14:45;;;;;;;;;;;;;;;;;;5049891;28;1524;-68
2022/03/07 16:17:11;;;;;;;;;;;;;;;;;;5049653;28;1918;-67
2022/03/07 16:19:37;;;;;;;;;;;;;;;;;;5050265;28;1481;-68
2022/03/07 16:22:05;;;;;;;;;;;;;;;;;;5032002;28;1561;-68
2022/03/07 16:24:31;;;;;;;;;;;;;;;;;;5050329;28;1853;-68
2022/03/07 16:26:57;;;;;;;;;;;;;;;;;;5046171;28;1239;-68
2022/03/07 16:29:24;;;;;;;;;;;;;;;;;;5049749;28;1303;-67
2022/03/07 16:31:52;;;;;;;;;;;;;;;;;;5049733;28;1574;-68
2022/03/07 16:34:21;;;;;;;;;;;;;;;;;;5050113;28;1492;-68
2022/03/07 16:36:47;;;;;;;;;;;;;;;;;;5046162;28;1914;-68
2022/03/07 16:39:14;;;;;;;;;;;;;;;;;;5049586;28;1219;-69
2022/03/07 16:41:40;;;;;;;;;;;;;;;;;;5049785;28;1402;-68
2022/03/07 16:44:08;;;;;;;;;;;;;;;;;;5046996;28;1556;-69
2022/03/07 16:46:34;;;;;;;;;;;;;;;;;;5049618;28;1513;-69
2022/03/07 16:49:00;;;;;;;;;;;;;;;;;;5050064;28;1094;-68
2022/03/07 16:51:26;;;;;;;;;;;;;;;;;;5049335;28;1473;-69
2022/03/07 16:53:52;;;;;;;;;;;;;;;;;;5049853;28;1314;-68
2022/03/07 16:56:20;;;;;;;;;;;;;;;;;;5049605;28;1963;-68
2022/03/07 16:58:48;;;;;;;;;;;;;;;;;;5048929;28;1454;-69
2022/03/07 17:01:14;;;;;;;;;;;;;;;;;;5049386;28;1283;-67
2022/03/07 17:03:40;;;;;;;;;;;;;;;;;;5049957;28;1469;-67